Time;durP1;ratioP1;P1;durP2;ratioP2;P2;SDS_P1;SDS_P2;PMS_P1;PMS_P2;Temp;Humidity;BMP_temperature;BMP_pressure;BME280_temperature;BME280_humidity;BME280_pressure;Samples;Min_cycle;Max_cycle;Signal;HPM_P1;HPM_P2
2022/04/26 03:36:39;;;;;;;10.63;5.67;;;;;;;11.10;73.16;94525.00;5033881;28;20535;-89
2022/04/26 03:39:06;;;;;;;10.57;5.33;;;;;;;11.29;73.48;94559.03;5015440;28;20184;-89
2022/04/26 03:41:32;;;;;;;13.77;6.50;;;;;;;11.35;73.53;94566.03;5013891;28;20182;-88
2022/04/26 03:43:58;;;;;;;13.77;5.43;;;;;;;11.07;73.25;94528.88;5005259;28;20188;-88
2022/04/26 03:46:24;;;;;;;11.00;5.57;;;;;;;11.10;73.41;94527.66;5024008;28;20180;-90
2022/04/26 03:48:49;;;;;;;8.73;4.70;;;;;;;11.13;73.84;94540.38;5003517;28;20192;-90
2022/04/26 03:51:15;;;;;;;10.03;5.03;;;;;;;11.10;73.87;94533.72;5005672;28;20200;-89
2022/04/26 03:53:40;;;;;;;9.97;3.60;;;;;;;11.12;74.06;94525.59;5013895;28;20180;-89
2022/04/26 03:56:06;;;;;;;8.10;4.20;;;;;;;11.22;74.34;94533.78;5014909;28;20687;-89
2022/04/26 03:58:33;;;;;;;5.80;3.47;;;;;;;11.44;74.70;94576.25;5015156;28;20243;-89
2022/04/26 04:00:59;;;;;;;16.17;4.43;;;;;;;11.02;74.25;94488.44;5032959;28;20531;-90
2022/04/26 04:03:25;;;;;;;11.00;3.57;;;;;;;11.76;74.09;94580.34;5014932;28;20179;-90
2022/04/26 04:05:50;;;;;;;17.23;5.70;;;;;;;11.42;73.79;94523.78;5032640;28;20612;-90
2022/04/26 04:08:16;;;;;;;8.27;3.83;;;;;;;11.60;73.25;94536.91;5032570;28;20263;-90
2022/04/26 04:10:41;;;;;;;15.80;3.97;;;;;;;11.63;72.94;94515.38;5014764;28;20227;-89
2022/04/26 04:13:07;;;;;;;11.30;4.40;;;;;;;11.75;72.29;94519.91;5033205;28;20250;-89
2022/04/26 04:15:32;;;;;;;21.50;11.83;;;;;;;11.91;71.88;94535.88;5032699;28;20637;-89
2022/04/26 04:17:58;;;;;;;41.83;23.13;;;;;;;12.09;71.27;94564.81;5029120;28;20187;-90
2022/04/26 04:20:23;;;;;;;90.83;56.73;;;;;;;11.95;71.31;94517.75;5003923;28;21721;-89
2022/04/26 04:22:49;;;;;;;28.97;16.30;;;;;;;12.18;69.63;94527.53;5002728;28;20172;-90
2022/04/26 04:25:15;;;;;;;50.63;14.23;;;;;;;12.62;68.49;94571.06;5023421;28;20669;-90
2022/04/26 04:27:42;;;;;;;19.53;7.77;;;;;;;12.92;67.33;94584.09;5023474;28;20249;-90
2022/04/26 04:30:08;;;;;;;18.77;5.47;;;;;;;12.93;66.65;94549.53;5007041;28;20179;-90
2022/04/26 04:32:34;;;;;;;20.57;8.10;;;;;;;13.52;66.10;94605.72;5018512;28;20188;-90
2022/04/26 04:34:59;;;;;;;16.37;9.00;;;;;;;13.29;67.71;94531.78;5019849;28;20172;-89
2022/04/26 04:37:25;;;;;;;8.83;3.13;;;;;;;13.58;64.02;94555.34;4995302;28;20207;-90
2022/04/26 04:39:50;;;;;;;11.27;4.67;;;;;;;13.74;63.89;94537.91;4994930;28;20183;-89
2022/04/26 04:42:16;;;;;;;21.23;3.70;;;;;;;14.51;62.78;94622.91;5024116;28;20177;-90
2022/04/26 04:44:42;;;;;;;17.17;4.53;;;;;;;14.59;63.67;94601.31;5014572;28;20210;-91
2022/04/26 04:47:07;;;;;;;14.83;3.23;;;;;;;14.61;63.11;94575.38;5014905;28;20179;-92
2022/04/26 04:49:33;;;;;;;12.50;3.05;;;;;;;14.84;60.49;94568.28;5024155;28;20172;-90
2022/04/26 04:51:58;;;;;;;19.47;4.10;;;;;;;14.98;62.02;94551.75;5011895;28;20207;-92
2022/04/26 04:54:24;;;;;;;24.83;3.77;;;;;;;15.21;60.33;94556.06;5008978;28;20172;-91
2022/04/26 04:56:49;;;;;;;20.10;4.45;;;;;;;15.40;57.70;94562.63;5017331;28;20652;-91
2022/04/26 04:59:16;;;;;;;12.07;3.72;;;;;;;16.18;56.65;94640.19;4996901;28;20216;-91
2022/04/26 05:01:42;;;;;;;14.70;3.08;;;;;;;16.03;56.19;94578.97;5013301;28;20206;-91
2022/04/26 05:04:08;;;;;;;13.43;3.05;;;;;;;16.62;54.74;94642.75;5008646;28;20184;-91
2022/04/26 05:06:33;;;;;;;16.30;3.90;;;;;;;16.36;54.14;94572.63;5009115;28;20577;-91
2022/04/26 05:08:59;;;;;;;11.25;4.57;;;;;;;16.66;52.85;94590.72;4995116;28;20345;-91
2022/04/26 05:11:25;;;;;;;17.65;4.55;;;;;;;16.94;52.91;94644.38;4995679;28;20199;-91
2022/04/26 05:13:50;;;;;;;17.48;4.80;;;;;;;16.67;53.34;94587.81;4994987;28;20180;-92
2022/04/26 05:16:16;;;;;;;11.05;5.85;;;;;;;17.01;56.13;94577.66;4994898;28;20180;-91
2022/04/26 05:18:41;;;;;;;13.15;5.13;;;;;;;16.98;54.19;94519.66;4995309;28;20666;-91
2022/04/26 05:21:12;;;;;;;15.88;4.50;;;;;;;17.61;53.35;94560.38;4997609;28;20217;-90
2022/04/26 05:26:22;;;;;;;7.45;3.28;;;;;;;18.47;49.65;94572.00;5024534;28;20626;-91
2022/04/26 05:28:47;;;;;;;8.43;1.80;;;;;;;19.05;47.28;94604.50;4996230;28;20255;-91
2022/04/26 05:31:14;;;;;;;4.35;1.85;;;;;;;19.33;45.93;94592.44;5006252;28;20210;-92
2022/04/26 05:33:40;;;;;;;7.03;1.30;;;;;;;19.72;44.84;94605.94;5005033;28;20179;-92
2022/04/26 05:36:05;;;;;;;8.43;2.60;;;;;;;19.82;44.58;94576.50;5005012;28;20179;-92
2022/04/26 05:38:31;;;;;;;22.48;14.88;;;;;;;20.24;45.31;94591.22;5007856;28;20180;-87
2022/04/26 05:40:57;;;;;;;7.85;2.28;;;;;;;20.90;42.98;94655.00;5000021;28;20617;-91
2022/04/26 05:43:23;;;;;;;7.28;2.20;;;;;;;21.20;44.09;94654.75;5002692;28;20187;-83
2022/04/26 05:45:48;;;;;;;11.90;3.10;;;;;;;21.37;43.25;94627.53;5022201;28;20177;-83
2022/04/26 05:48:14;;;;;;;5.82;2.10;;;;;;;21.72;41.47;94642.44;5009316;28;20184;-82
2022/04/26 05:50:40;;;;;;;3.58;2.00;;;;;;;21.77;42.92;94604.88;5024875;28;20298;-82
2022/04/26 05:53:06;;;;;;;6.15;2.60;;;;;;;22.49;40.14;94660.00;5028223;28;20239;-82
2022/04/26 05:55:32;;;;;;;7.13;3.83;;;;;;;22.61;40.21;94632.72;5018705;28;20576;-81
2022/04/26 05:57:58;;;;;;;13.88;4.03;;;;;;;23.01;38.33;94657.38;5023267;28;20248;-81
2022/04/26 06:00:23;;;;;;;10.35;2.60;;;;;;;23.09;39.57;94648.66;5024373;28;20559;-80
2022/04/26 06:02:49;;;;;;;10.45;3.70;;;;;;;23.16;38.87;94649.09;5019589;28;20172;-81
2022/04/26 06:05:14;;;;;;;5.93;1.90;;;;;;;23.25;38.60;94655.38;5026795;28;20172;-81
2022/04/26 06:07:40;;;;;;;5.68;2.13;;;;;;;23.31;38.68;94648.81;5025660;28;20219;-82
2022/04/26 06:10:07;;;;;;;9.32;3.90;;;;;;;23.44;36.13;94645.34;5022052;28;21073;-82
2022/04/26 06:12:33;;;;;;;8.05;2.13;;;;;;;23.51;37.29;94626.19;5021662;28;20201;-81
2022/04/26 06:14:59;;;;;;;5.70;2.13;;;;;;;23.86;36.23;94648.91;5020708;28;20184;-82
2022/04/26 06:17:25;;;;;;;10.07;4.90;;;;;;;23.63;35.28;94646.09;5028048;28;20233;-81
2022/04/26 06:19:51;;;;;;;4.03;2.60;;;;;;;23.67;35.72;94649.00;5024583;28;20258;-81
2022/04/26 06:22:16;;;;;;;13.43;5.20;;;;;;;23.61;36.75;94599.91;5023073;28;20188;-81
2022/04/26 06:24:42;;;;;;;13.88;6.57;;;;;;;23.98;34.28;94635.75;5024503;28;20207;-82
2022/04/26 06:27:08;;;;;;;3.75;2.28;;;;;;;24.11;35.67;94621.50;5025800;28;20263;-82
2022/04/26 06:29:33;;;;;;;6.10;2.47;;;;;;;24.32;35.50;94611.09;5019940;28;20176;-81
2022/04/26 06:31:59;;;;;;;5.63;3.25;;;;;;;24.43;33.31;94640.19;5022135;28;20188;-81
2022/04/26 06:34:25;;;;;;;5.55;2.50;;;;;;;24.62;32.69;94633.88;5027012;28;20175;-81
2022/04/26 06:36:50;;;;;;;6.28;2.13;;;;;;;24.69;32.82;94615.38;5021436;28;20180;-81
2022/04/26 06:39:16;;;;;;;9.98;4.13;;;;;;;24.93;31.34;94607.03;5010101;28;20244;-81
2022/04/26 06:41:42;;;;;;;2.45;1.15;;;;;;;25.27;31.29;94625.31;5018888;28;20179;-80
2022/04/26 06:44:08;;;;;;;12.18;2.40;;;;;;;25.10;31.57;94626.00;5029675;28;20172;-81
2022/04/26 06:46:36;;;;;;;8.55;4.28;;;;;;;25.16;31.29;94628.28;5022868;28;20183;-80
2022/04/26 06:49:02;;;;;;;8.27;3.30;;;;;;;24.88;31.28;94621.41;5021089;28;20580;-82
2022/04/26 06:51:33;;;;;;;7.60;3.53;;;;;;;24.40;32.15;94611.19;5029257;28;20245;-83
2022/04/26 06:53:59;;;;;;;7.05;2.65;;;;;;;24.38;32.36;94577.63;5025065;28;20176;-83
2022/04/26 06:56:24;;;;;;;7.50;1.80;;;;;;;24.77;35.15;94620.03;5025855;28;20298;-82
2022/04/26 06:58:50;;;;;;;5.90;1.88;;;;;;;25.08;34.66;94599.38;5022232;28;20168;-86
2022/04/26 07:01:15;;;;;;;3.88;1.50;;;;;;;25.35;32.58;94595.72;5023862;28;20186;-84
2022/04/26 07:03:41;;;;;;;5.32;1.65;;;;;;;25.11;29.86;94579.91;5023421;28;20248;-84
2022/04/26 07:06:06;;;;;;;2.13;1.40;;;;;;;24.99;30.04;94593.16;5020342;28;20190;-82
2022/04/26 07:08:32;;;;;;;4.78;1.55;;;;;;;25.26;32.92;94605.66;5020842;28;20254;-81
2022/04/26 07:10:58;;;;;;;4.43;1.90;;;;;;;25.35;32.83;94616.47;5020373;28;20203;-81
2022/04/26 07:13:23;;;;;;;2.63;1.48;;;;;;;25.03;30.60;94590.63;5027998;28;20183;-83
2022/04/26 07:15:49;;;;;;;6.65;1.45;;;;;;;25.18;31.43;94609.09;5022254;28;20179;-82
2022/04/26 07:18:14;;;;;;;7.82;1.88;;;;;;;25.51;31.39;94615.00;5017865;28;20203;-82
2022/04/26 07:20:44;;;;;;;2.75;1.23;;;;;;;25.67;29.87;94618.09;5001719;28;20204;-81
2022/04/26 07:23:10;;;;;;;4.93;1.58;;;;;;;25.57;30.02;94624.53;5021910;28;20177;-80
2022/04/26 07:25:35;;;;;;;4.55;1.40;;;;;;;25.73;30.01;94617.66;5005160;28;20728;-80
2022/04/26 07:28:01;;;;;;;3.35;1.60;;;;;;;25.78;30.36;94601.31;5009336;28;20184;-83
2022/04/26 07:30:34;;;;;;;1.90;1.25;;;;;;;25.90;29.83;94589.94;5026271;28;20652;-80
2022/04/26 07:35:53;;;;;;;3.42;1.63;;;;;;;26.57;29.22;94625.47;5021251;28;20199;-83
2022/04/26 07:38:19;;;;;;;5.28;1.88;;;;;;;26.37;27.71;94577.50;5010387;28;20187;-83
2022/04/26 07:40:45;;;;;;;3.53;1.55;;;;;;;26.67;28.23;94618.97;5022896;28;20175;-83
2022/04/26 07:43:10;;;;;;;4.80;1.88;;;;;;;25.83;28.68;94586.91;5020924;28;20279;-83
2022/04/26 07:45:37;;;;;;;4.07;1.63;;;;;;;25.93;30.88;94573.13;5020173;28;20298;-81
2022/04/26 07:48:05;;;;;;;1.63;1.35;;;;;;;26.09;28.08;94619.34;5025298;28;20163;-81
2022/04/26 07:50:32;;;;;;;9.55;1.27;;;;;;;26.14;29.01;94614.59;5021926;28;20707;-82
2022/04/26 07:52:58;;;;;;;3.42;1.20;;;;;;;26.42;28.84;94619.75;5025407;28;20657;-82
2022/04/26 07:55:24;;;;;;;2.40;1.20;;;;;;;26.42;28.50;94590.03;5024995;28;20200;-82
2022/04/26 07:57:49;;;;;;;6.72;1.42;;;;;;;26.71;28.35;94584.03;5022511;28;20218;-84
2022/04/26 08:00:16;;;;;;;2.53;1.30;;;;;;;26.59;27.37;94593.56;5020421;28;20227;-83
2022/04/26 08:02:42;;;;;;;6.25;1.40;;;;;;;26.50;28.01;94600.06;5024683;28;20161;-82
2022/04/26 08:05:07;;;;;;;1.65;1.17;;;;;;;26.11;27.27;94617.13;5023919;28;20203;-82
2022/04/26 08:07:39;;;;;;;3.58;1.52;;;;;;;26.19;29.44;94613.66;5017846;28;20626;-83
2022/04/26 08:10:07;;;;;;;3.05;1.27;;;;;;;26.02;28.54;94614.41;5021000;28;20238;-82
2022/04/26 08:12:32;;;;;;;2.72;1.33;;;;;;;25.77;28.45;94564.66;5026784;28;20210;-83
2022/04/26 08:14:57;;;;;;;7.90;1.67;;;;;;;26.23;29.82;94603.81;5032287;28;20156;-82
2022/04/26 08:17:23;;;;;;;4.30;2.08;;;;;;;25.89;28.87;94581.03;5032243;28;20191;-83
2022/04/26 08:19:48;;;;;;;6.75;1.63;;;;;;;25.81;29.40;94571.03;5014310;28;20179;-84
2022/04/26 08:22:14;;;;;;;5.10;1.75;;;;;;;25.63;29.85;94542.41;5032042;28;20199;-84
2022/04/26 08:27:25;;;;;;;9.40;1.98;;;;;;;26.23;28.78;94606.50;5016828;28;20183;-83
2022/04/26 08:29:54;;;;;;;5.53;1.50;;;;;;;25.90;29.71;94604.22;5027170;28;20255;-85
2022/04/26 08:32:21;;;;;;;6.05;1.80;;;;;;;25.08;31.95;94525.84;5005053;28;20196;-85
2022/04/26 08:34:47;;;;;;;6.75;1.60;;;;;;;26.05;32.72;94600.28;5003149;28;20192;-86
2022/04/26 08:37:13;;;;;;;6.43;1.75;;;;;;;26.42;30.87;94609.75;4999403;28;20176;-84
2022/04/26 08:39:39;;;;;;;4.47;1.75;;;;;;;26.70;29.78;94568.94;5012143;28;20171;-86
2022/04/26 08:42:06;;;;;;;4.28;1.40;;;;;;;27.06;28.40;94598.31;5013262;28;20172;-83
2022/04/26 08:44:32;;;;;;;8.63;1.88;;;;;;;26.94;30.82;94601.66;5013302;28;20160;-85
2022/04/26 08:52:28;;;;;;;8.02;1.90;;;;;;;24.66;35.42;94584.47;5014536;28;20207;-86
2022/04/26 08:54:54;;;;;;;7.55;1.90;;;;;;;24.39;34.50;94582.69;5022094;28;20181;-85
2022/04/26 08:57:20;;;;;;;13.80;2.15;;;;;;;24.72;33.70;94599.44;5023451;28;20201;-88
2022/04/26 08:59:50;;;;;;;14.05;2.58;;;;;;;25.32;34.63;94600.94;5024975;28;20238;-88
2022/04/26 09:02:22;;;;;;;4.35;1.65;;;;;;;25.09;31.79;94552.47;5004801;28;20202;-87
2022/04/26 09:04:59;;;;;;;8.50;2.15;;;;;;;25.46;32.63;94578.16;5019735;28;20259;-84
2022/04/26 09:07:39;;;;;;;8.27;2.35;;;;;;;25.31;32.27;94586.66;5002542;28;20172;-86
2022/04/26 09:10:18;;;;;;;7.90;2.10;;;;;;;24.94;33.34;94552.84;4994186;28;20236;-85
2022/04/26 09:13:12;;;;;;;10.80;2.90;;;;;;;24.47;34.68;94583.06;5007966;28;21276;-89
2022/04/26 09:15:48;;;;;;;8.93;1.85;;;;;;;23.92;36.57;94583.97;5021769;28;20171;-84
2022/04/26 09:18:20;;;;;;;11.23;2.88;;;;;;;23.65;36.84;94554.41;5022942;28;20180;-84
2022/04/26 09:20:48;;;;;;;5.00;1.70;;;;;;;23.81;35.96;94589.84;5025289;28;20260;-84
2022/04/26 09:23:34;;;;;;;8.25;2.20;;;;;;;23.62;35.92;94588.06;5024623;28;20191;-84
2022/04/26 09:26:11;;;;;;;10.38;2.13;;;;;;;23.84;36.29;94583.88;5029137;28;20196;-85
2022/04/26 09:28:43;;;;;;;15.45;2.95;;;;;;;23.98;37.54;94537.03;5024038;28;20175;-85
2022/04/26 09:31:21;;;;;;;9.23;2.22;;;;;;;24.23;36.30;94578.75;5009108;28;20199;-86
2022/04/26 09:33:52;;;;;;;10.63;2.30;;;;;;;24.18;36.56;94560.00;5006141;28;20212;-87
2022/04/26 09:36:22;;;;;;;4.82;2.10;;;;;;;24.46;36.49;94576.09;5008860;28;20230;-88
2022/04/26 09:38:56;;;;;;;5.60;2.08;;;;;;;24.69;35.26;94556.16;5024893;28;20176;-81
2022/04/26 09:41:23;;;;;;;15.55;2.65;;;;;;;24.90;34.33;94586.88;5024802;28;20254;-83
2022/04/26 09:43:59;;;;;;;11.95;2.53;;;;;;;24.56;36.43;94547.03;5022341;28;20172;-82
2022/04/26 09:46:24;;;;;;;12.05;3.17;;;;;;;24.76;35.02;94567.28;5033804;28;20174;-86
2022/04/26 09:48:53;;;;;;;15.82;3.42;;;;;;;24.50;35.66;94566.28;5034880;28;20159;-84
2022/04/26 09:51:19;;;;;;;11.07;2.40;;;;;;;24.13;35.76;94538.56;5034968;28;20175;-85
2022/04/26 09:53:44;;;;;;;8.70;2.28;;;;;;;23.89;36.26;94506.56;5034643;28;20172;-85
2022/04/26 09:56:13;;;;;;;9.63;3.38;;;;;;;24.14;36.47;94531.31;5034680;28;20210;-84
2022/04/26 09:58:42;;;;;;;10.30;3.00;;;;;;;24.18;38.71;94524.22;5017954;28;20558;-87
2022/04/26 10:01:08;;;;;;;9.90;3.13;;;;;;;24.50;37.42;94566.28;5040663;28;20733;-86
2022/04/26 10:03:37;;;;;;;12.63;2.47;;;;;;;24.18;38.33;94500.81;5034756;28;20172;-88
2022/04/26 10:06:05;;;;;;;17.75;3.15;;;;;;;24.56;42.53;94551.63;5006039;28;20187;-88
2022/04/26 10:08:34;;;;;;;8.77;2.40;;;;;;;24.60;38.36;94550.72;5005180;28;20231;-88
2022/04/26 10:11:01;;;;;;;11.80;3.35;;;;;;;24.21;37.32;94508.31;5023288;28;20200;-88
2022/04/26 10:13:31;;;;;;;6.38;3.20;;;;;;;24.29;38.49;94517.56;5015075;28;20575;-87
2022/04/26 10:16:02;;;;;;;6.80;2.47;;;;;;;24.25;37.66;94514.66;5025085;28;20262;-88
2022/04/26 10:19:03;;;;;;;14.07;2.65;;;;;;;24.31;36.41;94547.63;5016554;28;20172;-87
2022/04/26 10:21:46;;;;;;;8.80;2.90;;;;;;;24.12;36.40;94525.44;5008284;28;20275;-88
2022/04/26 10:24:13;;;;;;;9.95;2.55;;;;;;;23.51;37.03;94506.06;5028487;28;20183;-87
2022/04/26 10:26:40;;;;;;;10.30;2.70;;;;;;;23.46;37.74;94546.41;5024585;28;20681;-88
2022/04/26 10:29:09;;;;;;;9.40;2.53;;;;;;;23.43;37.97;94536.28;5008495;28;20222;-88
2022/04/26 10:31:56;;;;;;;11.18;2.25;;;;;;;23.43;35.97;94546.22;5005489;28;20212;-88
2022/04/26 10:34:28;;;;;;;7.63;1.90;;;;;;;23.48;34.83;94544.22;5027877;28;20187;-88
2022/04/26 10:37:01;;;;;;;7.75;1.98;;;;;;;23.69;36.63;94533.91;5007761;28;20177;-87
2022/04/26 10:39:32;;;;;;;6.72;1.90;;;;;;;23.78;35.06;94539.38;5031769;28;20245;-88
2022/04/26 10:42:03;;;;;;;10.02;2.17;;;;;;;23.53;34.03;94476.16;5016288;28;20563;-88
2022/04/26 10:44:31;;;;;;;5.22;2.03;;;;;;;23.83;35.15;94528.50;5016211;28;20175;-88
2022/04/26 10:47:03;;;;;;;4.57;2.10;;;;;;;23.95;36.38;94518.03;5034160;28;20172;-89
2022/04/26 10:49:43;;;;;;;6.15;2.20;;;;;;;23.98;35.07;94518.19;5016133;28;20187;-87
2022/04/26 10:52:14;;;;;;;7.25;1.70;;;;;;;23.48;35.21;94519.25;5034030;28;20707;-88
2022/04/26 10:54:48;;;;;;;14.18;2.22;;;;;;;23.14;35.97;94517.75;5033294;28;20152;-87
2022/04/26 10:57:22;;;;;;;11.20;2.25;;;;;;;22.88;38.03;94487.91;5028789;28;20213;-88
2022/04/26 10:59:49;;;;;;;14.73;3.00;;;;;;;23.21;36.92;94501.25;5026027;28;20176;-88
2022/04/26 11:02:17;;;;;;;9.93;2.28;;;;;;;23.40;39.52;94477.75;5022621;28;20563;-87
2022/04/26 11:04:42;;;;;;;6.88;2.25;;;;;;;23.63;39.52;94459.81;5021935;28;20273;-87
2022/04/26 11:07:18;;;;;;;13.15;1.83;;;;;;;23.99;33.35;94490.22;5022942;28;20657;-88
2022/04/26 11:09:49;;;;;;;7.30;1.92;;;;;;;24.27;34.67;94501.72;5022747;28;20239;-88
2022/04/26 11:12:19;;;;;;;11.63;1.98;;;;;;;24.31;36.87;94464.19;5005737;28;20194;-89
2022/04/26 11:14:49;;;;;;;4.30;1.60;;;;;;;24.52;33.73;94451.06;5025208;28;20179;-88
2022/04/26 11:17:16;;;;;;;4.40;1.77;;;;;;;24.67;30.35;94456.84;5020847;28;20527;-88
2022/04/26 11:20:16;;;;;;;5.40;1.58;;;;;;;24.97;31.17;94498.38;5031415;28;20180;-87
2022/04/26 11:22:50;;;;;;;7.70;1.80;;;;;;;24.92;29.83;94486.91;5006502;28;20237;-88
2022/04/26 11:28:06;;;;;;;9.70;2.40;;;;;;;24.62;31.74;94470.44;5015105;28;20172;-88
2022/04/26 11:30:41;;;;;;;5.57;1.58;;;;;;;24.64;30.79;94487.09;5041402;28;20681;-88
2022/04/26 11:33:22;;;;;;;4.82;1.67;;;;;;;24.73;33.53;94487.13;5024718;28;20229;-88
2022/04/26 11:36:01;;;;;;;10.38;2.03;;;;;;;24.97;34.21;94494.88;5015602;28;20542;-88
2022/04/26 11:38:27;;;;;;;4.47;1.85;;;;;;;25.22;30.09;94488.00;5010917;28;20179;-89
2022/04/26 11:41:00;;;;;;;8.55;2.00;;;;;;;25.15;29.38;94458.84;5014203;28;20206;-88
2022/04/26 11:43:28;;;;;;;6.25;2.08;;;;;;;25.28;29.49;94463.31;5029976;28;20700;-88
2022/04/26 11:45:55;;;;;;;7.63;1.90;;;;;;;25.25;30.29;94455.88;5014835;28;20188;-88
2022/04/26 11:48:32;;;;;;;11.27;2.05;;;;;;;25.45;30.70;94479.53;5032906;28;20179;-88
2022/04/26 11:50:59;;;;;;;9.00;2.38;;;;;;;24.62;29.50;94435.44;5015116;28;20191;-87
2022/04/26 11:53:30;;;;;;;7.93;2.20;;;;;;;24.10;30.04;94431.59;5028793;28;20176;-87
2022/04/26 11:56:01;;;;;;;6.97;1.70;;;;;;;24.00;31.47;94431.84;5012022;28;20275;-88
2022/04/26 11:58:26;;;;;;;6.55;1.92;;;;;;;24.10;30.78;94466.56;5014181;28;20178;-89
2022/04/26 12:01:02;;;;;;;9.68;1.77;;;;;;;24.05;30.89;94470.16;5012923;28;20160;-88
2022/04/26 12:03:34;;;;;;;8.63;1.83;;;;;;;23.56;31.68;94432.56;5012729;28;20649;-88
2022/04/26 12:06:01;;;;;;;4.72;1.83;;;;;;;23.70;31.87;94463.69;4995194;28;20646;-88
2022/04/26 12:08:28;;;;;;;9.15;2.53;;;;;;;23.39;31.19;94381.31;4995622;28;20240;-88
2022/04/26 12:10:54;;;;;;;4.35;1.58;;;;;;;23.62;31.28;94416.03;4994912;28;20236;-89
2022/04/26 12:13:31;;;;;;;5.78;1.50;;;;;;;23.57;32.03;94391.16;4995119;28;20642;-88
2022/04/26 12:16:17;;;;;;;4.75;1.75;;;;;;;23.95;30.62;94448.09;4995056;28;20163;-88
2022/04/26 12:18:53;;;;;;;4.50;1.83;;;;;;;24.03;30.67;94447.38;5012711;28;20252;-87
2022/04/26 12:21:20;;;;;;;5.28;1.80;;;;;;;24.26;30.81;94442.81;4994679;28;20182;-88
2022/04/26 12:23:46;;;;;;;10.45;2.90;;;;;;;24.39;30.39;94429.28;5012459;28;20165;-88
2022/04/26 12:26:13;;;;;;;7.22;1.88;;;;;;;24.12;30.47;94394.44;4994666;28;20178;-88
2022/04/26 12:28:50;;;;;;;12.02;1.98;;;;;;;24.42;29.84;94449.41;5019370;28;20234;-88
2022/04/26 12:31:59;;;;;;;25.52;2.30;;;;;;;24.34;30.79;94442.88;5003673;28;20680;-88
2022/04/26 12:34:29;;;;;;;5.07;1.50;;;;;;;24.41;30.59;94420.91;5015843;28;20164;-89
2022/04/26 12:36:59;;;;;;;5.50;1.65;;;;;;;24.33;29.48;94440.47;5011861;28;20175;-88
2022/04/26 12:39:43;;;;;;;3.60;1.42;;;;;;;24.07;30.30;94426.81;5027595;28;20183;-87
2022/04/26 12:42:10;;;;;;;6.97;1.92;;;;;;;23.86;29.18;94398.84;5018118;28;20187;-88
2022/04/26 12:44:47;;;;;;;4.10;1.90;;;;;;;23.98;30.25;94432.13;5002640;28;20234;-88
2022/04/26 12:53:21;;;;;;;12.40;3.20;;;;;;;23.99;30.98;94411.41;4986085;28;20241;-86
2022/04/26 12:55:46;;;;;;;6.78;1.60;;;;;;;24.07;30.81;94418.75;5021220;28;20646;-87
2022/04/26 12:58:14;;;;;;;9.55;1.83;;;;;;;23.36;34.51;94417.66;5022981;28;20176;-86
2022/04/26 13:00:50;;;;;;;14.35;2.20;;;;;;;22.77;35.65;94394.41;5005559;28;20188;-86
2022/04/26 13:03:19;;;;;;;2.67;1.70;;;;;;;22.35;36.90;94441.03;4994045;28;20207;-86
2022/04/26 13:05:47;;;;;;;5.15;1.50;;;;;;;22.06;38.26;94460.81;5001179;28;20184;-86
2022/04/26 13:08:14;;;;;;;9.95;1.58;;;;;;;21.62;38.23;94463.06;5023169;28;20188;-84
2022/04/26 13:10:41;;;;;;;7.25;1.95;;;;;;;21.54;38.62;94472.53;4998087;28;20177;-83
2022/04/26 13:13:08;;;;;;;8.98;1.80;;;;;;;21.48;39.52;94454.13;4998007;28;20219;-85
2022/04/26 13:15:34;;;;;;;2.55;1.40;;;;;;;21.64;40.07;94493.03;5015975;28;20164;-86
2022/04/26 13:18:00;;;;;;;3.58;1.20;;;;;;;21.48;38.72;94468.31;5007857;28;20229;-84
2022/04/26 13:20:26;;;;;;;5.95;1.80;;;;;;;21.36;39.93;94478.69;5035468;28;20242;-85
2022/04/26 13:22:52;;;;;;;6.28;1.98;;;;;;;20.59;40.76;94411.78;5035207;28;20156;-85
2022/04/26 13:25:17;;;;;;;8.32;1.35;;;;;;;20.62;40.06;94456.72;5015834;28;20192;-84
2022/04/26 13:27:45;;;;;;;6.93;1.70;;;;;;;20.71;40.69;94480.97;5027985;28;20168;-84
2022/04/26 13:30:11;;;;;;;5.88;1.45;;;;;;;20.44;39.49;94462.78;5002931;28;20563;-84
2022/04/26 13:32:37;;;;;;;9.05;1.50;;;;;;;20.28;39.67;94448.72;5026480;28;20202;-83
2022/04/26 13:35:05;;;;;;;7.18;3.22;;;;;;;20.44;40.14;94457.41;5023019;28;20259;-85
2022/04/26 13:37:31;;;;;;;5.03;1.40;;;;;;;20.64;40.30;94453.75;5011529;28;20175;-84
2022/04/26 13:39:58;;;;;;;2.42;1.20;;;;;;;20.95;39.41;94475.63;5019128;28;20173;-85
2022/04/26 13:42:27;;;;;;;3.13;1.38;;;;;;;20.83;39.91;94472.56;5015321;28;20219;-84
2022/04/26 13:44:53;;;;;;;3.67;1.83;;;;;;;20.66;40.28;94460.44;4997354;28;20214;-85
2022/04/26 13:47:19;;;;;;;6.75;1.33;;;;;;;20.22;42.36;94459.75;5020548;28;20562;-85
2022/04/26 13:49:45;;;;;;;4.65;2.30;;;;;;;19.96;42.73;94461.81;5021359;28;20730;-84
2022/04/26 13:52:10;;;;;;;2.65;1.25;;;;;;;19.42;43.97;94405.78;5003893;28;20223;-84
2022/04/26 13:54:36;;;;;;;7.97;1.30;;;;;;;19.41;45.21;94437.03;5026585;28;20187;-84
2022/04/26 13:57:02;;;;;;;6.63;1.42;;;;;;;19.51;45.07;94452.22;5028797;28;20550;-84
2022/04/26 13:59:28;;;;;;;3.22;1.17;;;;;;;19.54;44.69;94455.16;5023611;28;20207;-84
2022/04/26 14:01:54;;;;;;;4.20;1.60;;;;;;;19.64;45.34;94469.50;5026712;28;20196;-84
2022/04/26 14:04:23;;;;;;;3.17;1.30;;;;;;;19.61;44.90;94460.19;5005341;28;20183;-85
2022/04/26 14:06:48;;;;;;;1.80;1.23;;;;;;;19.60;45.65;94479.94;5021678;28;20174;-84
2022/04/26 14:09:17;;;;;;;8.75;1.80;;;;;;;19.57;46.40;94485.84;5021917;28;20216;-86
2022/04/26 14:11:43;;;;;;;3.60;1.20;;;;;;;19.40;45.88;94456.00;5026549;28;20195;-85
2022/04/26 14:22:20;;;;;;;4.72;1.50;;;;;;;19.56;46.33;94497.59;5025859;28;20314;-85
2022/04/26 14:24:48;;;;;;;7.40;1.45;;;;;;;19.97;45.51;94548.94;5024482;28;20697;-85
2022/04/26 14:27:14;;;;;;;4.75;1.50;;;;;;;20.05;45.78;94547.53;5005581;28;20570;-85
2022/04/26 14:29:39;;;;;;;5.10;1.40;;;;;;;20.04;44.29;94540.59;5024510;28;20191;-85
2022/04/26 14:32:05;;;;;;;7.60;1.63;;;;;;;20.20;43.85;94548.22;5025651;28;20191;-85
2022/04/26 14:34:32;;;;;;;2.60;1.30;;;;;;;20.25;43.33;94560.75;5002129;28;20176;-85
2022/04/26 14:36:58;;;;;;;9.82;2.30;;;;;;;20.21;43.29;94557.84;5025877;28;20593;-86
2022/04/26 14:39:24;;;;;;;30.67;2.15;;;;;;;20.45;44.71;94608.78;5006105;28;20581;-86
2022/04/26 14:41:49;;;;;;;4.40;1.38;;;;;;;20.20;46.09;94598.22;5010712;28;20203;-85
2022/04/26 14:44:15;;;;;;;1.98;1.33;;;;;;;19.78;46.28;94558.66;5026620;28;20175;-86
2022/04/26 14:46:40;;;;;;;1.80;1.23;;;;;;;19.64;47.06;94571.78;5033780;28;20191;-86
2022/04/26 14:49:06;;;;;;;9.40;1.25;;;;;;;19.53;47.44;94570.25;5033658;28;20198;-85
2022/04/26 14:51:32;;;;;;;3.03;1.10;;;;;;;19.36;47.18;94569.75;5024679;28;20226;-86
2022/04/26 14:53:58;;;;;;;2.30;1.20;;;;;;;19.51;46.68;94615.13;5020568;28;20176;-86
2022/04/26 14:56:23;;;;;;;4.78;1.15;;;;;;;18.85;48.00;94533.31;5010905;28;20265;-87
2022/04/26 14:58:49;;;;;;;2.50;0.90;;;;;;;19.43;47.54;94629.00;5023078;28;20627;-84
2022/04/26 15:01:18;;;;;;;1.30;0.90;;;;;;;19.41;46.82;94634.59;5024029;28;20168;-85
2022/04/26 15:03:44;;;;;;;5.07;1.45;;;;;;;19.31;47.75;94613.25;5022010;28;20183;-85
2022/04/26 15:06:13;;;;;;;0.95;0.90;;;;;;;19.19;48.54;94604.75;5026069;28;20168;-85
2022/04/26 15:11:23;;;;;;;2.15;1.50;;;;;;;18.77;51.52;94597.06;5024708;28;20242;-85
2022/04/26 15:16:39;;;;;;;3.67;1.10;;;;;;;19.02;50.25;94636.28;5034052;28;20251;-86
2022/04/26 15:19:09;;;;;;;7.03;1.33;;;;;;;18.85;50.63;94591.22;5033157;28;20242;-86
2022/04/26 15:21:35;;;;;;;2.58;1.60;;;;;;;19.01;50.57;94616.00;5033458;28;20283;-86
2022/04/26 15:24:02;;;;;;;2.38;1.25;;;;;;;19.09;50.07;94615.47;5027205;28;20215;-86
2022/04/26 15:26:28;;;;;;;2.40;1.10;;;;;;;18.86;50.08;94627.47;5024719;28;20175;-85
2022/04/26 15:28:55;;;;;;;4.25;1.40;;;;;;;18.55;50.73;94586.66;5020543;28;20172;-85
2022/04/26 15:31:21;;;;;;;8.63;2.40;;;;;;;18.89;50.97;94636.81;5021974;28;20228;-85
2022/04/26 15:33:48;;;;;;;2.47;1.35;;;;;;;18.70;50.73;94620.53;5026085;28;20207;-84
2022/04/26 15:36:17;;;;;;;2.92;1.35;;;;;;;18.68;51.17;94638.69;5021184;28;21044;-85
2022/04/26 15:38:43;;;;;;;2.22;1.35;;;;;;;18.51;51.98;94611.47;5027961;28;20180;-85
2022/04/26 15:41:09;;;;;;;2.95;1.45;;;;;;;18.73;52.27;94641.34;5023912;28;20168;-89
2022/04/26 15:43:39;;;;;;;4.78;1.15;;;;;;;18.55;51.60;94629.31;5024441;28;20183;-84
2022/04/26 15:48:54;;;;;;;4.10;2.42;;;;;;;18.43;50.79;94613.56;5029278;28;20182;-86
2022/04/26 15:51:21;;;;;;;2.22;1.20;;;;;;;18.56;50.68;94630.91;4999390;28;20269;-86